createdAt,value
2023-03-26T00:03:02.324Z,99865.72
2023-03-26T00:06:12.931Z,99866.94
2023-03-26T00:09:17.008Z,99876.66
2023-03-26T00:12:20.137Z,99869.59
2023-03-26T00:15:22.925Z,99878.41
2023-03-26T00:18:30.892Z,99874.22
2023-03-26T00:21:34.218Z,99869.38
2023-03-26T00:24:37.764Z,99878.53
2023-03-26T00:27:41.993Z,99861.16
2023-03-26T00:30:45.127Z,99861.16
2023-03-26T00:33:47.980Z,99864.31
2023-03-26T00:36:54.930Z,99864.97
2023-03-26T00:40:09.882Z,99860.12
2023-03-26T00:43:19.455Z,99857.75
2023-03-26T00:46:23.581Z,99845.16
2023-03-26T00:49:27.003Z,99852.44
2023-03-26T00:52:29.937Z,99856.22
2023-03-26T00:55:33.009Z,99856.59
2023-03-26T00:58:35.986Z,99855.59
2023-03-26T01:01:40.012Z,99851.94
2023-03-26T01:04:55.754Z,99854.25
2023-03-26T01:08:16.606Z,99856.31
2023-03-26T01:11:26.208Z,99849.63
2023-03-26T01:14:29.958Z,99849.75
2023-03-26T01:17:34.508Z,99843.34
2023-03-26T01:20:47.107Z,99843.78
2023-03-26T01:24:00.402Z,99839.06
2023-03-26T01:27:21.094Z,99835.50
2023-03-26T01:30:27.890Z,99830.38
2023-03-26T01:33:44.095Z,99834.28
2023-03-26T01:37:13.530Z,99822.53
2023-03-26T01:40:43.152Z,99842.91
2023-03-26T01:44:00.805Z,99837.56
2023-03-26T01:47:06.190Z,99842.25
2023-03-26T01:50:09.796Z,99851.75
2023-03-26T01:53:14.615Z,99840.31
2023-03-26T01:56:39.259Z,99831.78
2023-03-26T02:00:07.212Z,99842.69
2023-03-26T02:03:45.268Z,99833.16
2023-03-26T02:07:05.914Z,99835.47
2023-03-26T02:10:16.646Z,99832.25
2023-03-26T02:13:21.169Z,99836.50
2023-03-26T02:16:24.029Z,99820.13
2023-03-26T02:19:27.246Z,99816.16
2023-03-26T02:22:30.136Z,99811.19
2023-03-26T02:25:35.467Z,99809.44
2023-03-26T02:28:38.602Z,99807.53
2023-03-26T02:31:41.952Z,99807.81
2023-03-26T02:34:44.846Z,99804.63
2023-03-26T02:37:51.121Z,99796.88
2023-03-26T02:40:55.530Z,99794.19
2023-03-26T02:44:00.474Z,99780.34
2023-03-26T02:47:05.068Z,99803.22
2023-03-26T02:50:12.313Z,99791.22
2023-03-26T02:53:19.596Z,99802.25
2023-03-26T02:56:23.832Z,99794.81
2023-03-26T02:59:28.581Z,99793.00
2023-03-26T03:02:32.640Z,99792.56
2023-03-26T03:05:38.309Z,99785.22
2023-03-26T03:08:41.927Z,99786.81
2023-03-26T03:11:45.955Z,99784.81
2023-03-26T03:14:49.219Z,99788.22
2023-03-26T03:17:52.076Z,99789.88
2023-03-26T03:20:55.352Z,99790.88
2023-03-26T03:24:00.254Z,99795.63
2023-03-26T03:27:04.876Z,99801.84
2023-03-26T03:30:09.476Z,99805.09
2023-03-26T03:33:19.399Z,99797.06
2023-03-26T03:36:23.521Z,99805.63
2023-03-26T03:39:27.109Z,99808.63
2023-03-26T03:42:30.268Z,99814.62
2023-03-26T03:45:34.274Z,99814.97
2023-03-26T03:48:40.880Z,99810.81
2023-03-26T03:51:44.372Z,99805.22
2023-03-26T03:54:47.399Z,99825.31
2023-03-26T03:57:52.753Z,99809.28
2023-03-26T04:01:03.198Z,99805.56
2023-03-26T04:04:08.254Z,99803.69
2023-03-26T04:07:13.744Z,99798.28
2023-03-26T04:10:17.880Z,99802.66
2023-03-26T04:13:23.618Z,99799.22
2023-03-26T04:16:27.706Z,99804.13
2023-03-26T04:19:31.218Z,99792.53
2023-03-26T04:22:34.720Z,99796.56
2023-03-26T04:25:39.597Z,99798.44
2023-03-26T04:28:49.179Z,99794.91
2023-03-26T04:31:58.878Z,99795.97
2023-03-26T04:35:07.319Z,99800.84
2023-03-26T04:38:11.474Z,99803.53
2023-03-26T04:41:16.045Z,99787.66
2023-03-26T04:44:22.599Z,99798.66
2023-03-26T04:47:26.208Z,99800.78
2023-03-26T04:50:29.093Z,99792.50
2023-03-26T04:53:32.325Z,99792.31
2023-03-26T04:57:08.939Z,99781.72
2023-03-26T05:00:16.752Z,99779.28
2023-03-26T05:03:21.281Z,99796.81
2023-03-26T05:06:34.496Z,99792.94
2023-03-26T05:09:39.762Z,99804.22
2023-03-26T05:12:43.896Z,99800.09
2023-03-26T05:15:47.898Z,99806.34
2023-03-26T05:18:51.881Z,99804.81
2023-03-26T05:21:55.141Z,99804.69
2023-03-26T05:24:58.490Z,99801.34
2023-03-26T05:28:02.212Z,99803.00
2023-03-26T05:31:07.281Z,99799.59
2023-03-26T05:34:11.182Z,99792.75
2023-03-26T05:37:14.460Z,99791.72
2023-03-26T05:40:18.259Z,99781.28
2023-03-26T05:43:21.801Z,99788.13
2023-03-26T05:46:25.042Z,99782.69
2023-03-26T05:49:28.301Z,99782.59
2023-03-26T05:52:31.118Z,99783.94
2023-03-26T05:55:46.023Z,99787.53
2023-03-26T05:58:59.901Z,99781.41
2023-03-26T06:02:03.742Z,99788.25
2023-03-26T06:05:08.272Z,99786.59
2023-03-26T06:08:11.688Z,99792.00
2023-03-26T06:11:16.168Z,99802.53
2023-03-26T06:14:19.135Z,99796.09
2023-03-26T06:17:24.648Z,99800.31
2023-03-26T06:20:28.986Z,99812.41
2023-03-26T06:23:32.902Z,99813.84
2023-03-26T06:26:36.648Z,99820.84
2023-03-26T06:29:40.846Z,99818.69
2023-03-26T06:32:45.643Z,99809.41
2023-03-26T06:35:49.139Z,99813.47
2023-03-26T06:38:52.293Z,99805.75
2023-03-26T06:41:55.768Z,99806.16
2023-03-26T06:44:58.979Z,99810.47
2023-03-26T06:48:05.630Z,99804.84
2023-03-26T06:51:11.341Z,99788.75
2023-03-26T06:54:18.318Z,99809.31
2023-03-26T06:57:21.749Z,99799.09
2023-03-26T07:00:27.866Z,99806.59
2023-03-26T07:03:37.534Z,99794.31
2023-03-26T07:06:49.978Z,99797.53
2023-03-26T07:10:02.392Z,99801.50
2023-03-26T07:13:09.434Z,99797.53
2023-03-26T07:16:14.286Z,99797.38
2023-03-26T07:19:18.424Z,99795.75
2023-03-26T07:22:24.149Z,99803.66
2023-03-26T07:25:30.296Z,99794.19
2023-03-26T07:28:42.180Z,99804.84
2023-03-26T07:32:39.876Z,99805.94
2023-03-26T07:35:59.767Z,99798.75
2023-03-26T07:39:23.074Z,99799.19
2023-03-26T07:42:45.139Z,99792.06
2023-03-26T07:45:50.000Z,99796.00
2023-03-26T07:48:55.273Z,99795.25
2023-03-26T07:51:58.999Z,99797.94
2023-03-26T07:55:03.703Z,99794.00
2023-03-26T07:58:35.571Z,99794.91
2023-03-26T08:01:56.369Z,99794.13
2023-03-26T08:05:20.000Z,99787.69
2023-03-26T08:08:27.368Z,99783.72
2023-03-26T08:11:47.676Z,99787.34
2023-03-26T08:15:09.066Z,99791.34
2023-03-26T08:18:22.150Z,99777.91
2023-03-26T08:21:34.233Z,99774.38
2023-03-26T08:24:47.857Z,99772.81
2023-03-26T08:28:04.480Z,99776.03
2023-03-26T08:31:11.465Z,99766.06
2023-03-26T08:34:14.859Z,99770.84
2023-03-26T08:37:18.192Z,99772.84
2023-03-26T08:40:54.081Z,99763.31
2023-03-26T08:44:28.012Z,99771.69
2023-03-26T08:47:30.955Z,99761.38
2023-03-26T08:51:01.764Z,99753.00
2023-03-26T08:54:37.440Z,99760.16
2023-03-26T08:57:43.337Z,99751.38
2023-03-26T09:01:19.901Z,99757.69
2023-03-26T09:04:29.208Z,99765.56
2023-03-26T09:07:53.619Z,99755.50
2023-03-26T09:11:13.046Z,99744.38
2023-03-26T09:14:36.869Z,99744.47
2023-03-26T09:18:01.550Z,99748.53
2023-03-26T09:21:22.637Z,99738.97
2023-03-26T09:24:38.212Z,99731.78
2023-03-26T09:27:56.905Z,99715.81
2023-03-26T09:31:32.729Z,99720.28
2023-03-26T09:34:57.659Z,99705.41
2023-03-26T09:38:11.508Z,99702.09
2023-03-26T09:41:16.237Z,99700.53
2023-03-26T09:44:43.921Z,99703.53
2023-03-26T09:47:58.668Z,99689.69
2023-03-26T09:51:31.002Z,99680.50
2023-03-26T09:54:37.089Z,99674.81
2023-03-26T09:58:18.018Z,99670.12
2023-03-26T10:01:37.864Z,99656.81
2023-03-26T10:05:15.079Z,99657.56
2023-03-26T10:08:59.525Z,99639.12
2023-03-26T10:12:24.064Z,99635.09
2023-03-26T10:15:42.276Z,99627.22
2023-03-26T10:19:04.680Z,99618.34
2023-03-26T10:22:10.877Z,99619.97
2023-03-26T10:25:16.928Z,99615.34
2023-03-26T10:28:34.333Z,99614.59
2023-03-26T10:32:06.838Z,99599.97
2023-03-26T10:35:41.204Z,99597.53
2023-03-26T10:39:02.191Z,99585.50
2023-03-26T10:42:11.243Z,99569.59
2023-03-26T10:45:27.076Z,99569.88
2023-03-26T10:48:35.733Z,99562.94
2023-03-26T10:51:48.908Z,99559.50
2023-03-26T10:55:16.645Z,99545.09
2023-03-26T10:58:29.425Z,99538.97
2023-03-26T11:02:29.461Z,99530.44
2023-03-26T11:05:52.421Z,99537.34
2023-03-26T11:09:12.548Z,99519.53
2023-03-26T11:12:29.627Z,99515.94
2023-03-26T11:15:52.711Z,99505.69
2023-03-26T11:19:05.471Z,99506.25
2023-03-26T11:22:20.616Z,99495.38
2023-03-26T11:25:50.153Z,99481.91
2023-03-26T11:29:31.638Z,99488.63
2023-03-26T11:32:47.422Z,99470.25
2023-03-26T11:35:53.274Z,99449.84
2023-03-26T11:39:00.364Z,99446.22
2023-03-26T11:42:16.059Z,99440.66
2023-03-26T11:45:22.785Z,99433.88
2023-03-26T11:48:36.322Z,99423.50
2023-03-26T11:51:42.577Z,99419.13
2023-03-26T11:54:48.728Z,99410.97
2023-03-26T11:57:57.796Z,99403.44
2023-03-26T12:01:05.830Z,99391.56
2023-03-26T12:04:15.092Z,99385.72
2023-03-26T12:07:25.068Z,99372.38
2023-03-26T12:10:41.870Z,99370.38
2023-03-26T12:13:58.399Z,99371.53
2023-03-26T12:17:06.305Z,99355.06
2023-03-26T12:20:32.582Z,99348.59
2023-03-26T12:23:57.441Z,99340.44
2023-03-26T12:27:28.692Z,99345.19
2023-03-26T12:30:37.472Z,99343.00
2023-03-26T12:33:40.738Z,99335.78
2023-03-26T12:36:53.421Z,99327.50
2023-03-26T12:40:28.103Z,99323.00
2023-03-26T12:44:53.115Z,99308.22
2023-03-26T12:48:00.459Z,99321.19
2023-03-26T12:51:40.379Z,99301.16
2023-03-26T12:54:49.631Z,99282.75
2023-03-26T12:58:24.639Z,99299.34
2023-03-26T13:01:46.286Z,99287.22
2023-03-26T13:05:22.959Z,99293.09
2023-03-26T13:08:53.987Z,99277.44
2023-03-26T13:12:26.623Z,99270.63
2023-03-26T13:15:45.844Z,99269.13
2023-03-26T13:19:15.904Z,99265.84
2023-03-26T13:22:44.415Z,99253.59
2023-03-26T13:25:53.289Z,99260.44
2023-03-26T13:29:18.337Z,99244.59
2023-03-26T13:32:47.886Z,99243.59
2023-03-26T13:36:24.546Z,99234.91
2023-03-26T13:39:58.621Z,99226.97
2023-03-26T13:43:14.155Z,99219.75
2023-03-26T13:46:46.608Z,99210.13
2023-03-26T13:50:02.147Z,99204.44
2023-03-26T13:53:17.103Z,99189.44
2023-03-26T13:56:30.069Z,99194.97
2023-03-26T13:59:40.155Z,99198.38
2023-03-26T14:02:48.797Z,99186.03
2023-03-26T14:05:56.143Z,99180.66
2023-03-26T14:09:07.280Z,99192.78
2023-03-26T14:12:34.855Z,99184.69
2023-03-26T14:15:51.043Z,99184.91
2023-03-26T14:19:32.677Z,99177.09
2023-03-26T14:22:41.648Z,99162.25
2023-03-26T14:26:16.463Z,99155.16
2023-03-26T14:29:25.876Z,99155.87
2023-03-26T14:32:46.391Z,99164.44
2023-03-26T14:36:31.793Z,99150.00
2023-03-26T14:39:55.604Z,99149.63
2023-03-26T14:43:36.120Z,99146.06
2023-03-26T14:47:04.600Z,99144.94
2023-03-26T14:50:31.779Z,99143.25
2023-03-26T14:53:40.319Z,99133.69
2023-03-26T14:57:19.846Z,99134.22
2023-03-26T15:00:53.007Z,99123.59
2023-03-26T15:04:32.031Z,99117.53
2023-03-26T15:07:46.994Z,99113.00
2023-03-26T15:11:07.077Z,99109.75
2023-03-26T15:14:38.595Z,99096.91
2023-03-26T15:18:00.582Z,99104.94
2023-03-26T15:21:06.434Z,99092.25
2023-03-26T15:24:53.152Z,99095.22
2023-03-26T15:28:33.560Z,99088.94
2023-03-26T15:32:04.795Z,99083.06
2023-03-26T15:35:57.712Z,99066.69
2023-03-26T15:39:18.704Z,99059.50
2023-03-26T15:42:52.870Z,99059.50
2023-03-26T15:46:12.021Z,99040.34
2023-03-26T15:49:30.364Z,99035.81
2023-03-26T15:52:54.227Z,99043.97
2023-03-26T15:56:13.721Z,99029.09
2023-03-26T15:59:37.366Z,99017.72
2023-03-26T16:02:54.056Z,99014.34
2023-03-26T16:06:20.397Z,99012.16
2023-03-26T16:09:39.225Z,99008.00
2023-03-26T16:13:20.183Z,99014.91
2023-03-26T16:16:45.896Z,98998.66
2023-03-26T16:20:20.491Z,98997.50
2023-03-26T16:23:47.230Z,98996.00
2023-03-26T16:27:16.915Z,98996.09
2023-03-26T16:30:32.182Z,98997.44
2023-03-26T16:34:00.702Z,98989.66
2023-03-26T16:37:09.781Z,98992.25
2023-03-26T16:40:32.690Z,98996.03
2023-03-26T16:44:17.401Z,98993.91
2023-03-26T16:47:40.646Z,98998.12
2023-03-26T16:50:49.882Z,99004.75
2023-03-26T16:54:10.131Z,99002.19
2023-03-26T16:57:37.312Z,99012.22
2023-03-26T17:01:10.188Z,98999.53
2023-03-26T17:04:24.244Z,99007.22
2023-03-26T17:07:43.935Z,99006.16
2023-03-26T17:11:18.981Z,98998.28
2023-03-26T17:14:49.972Z,98996.72
2023-03-26T17:18:20.171Z,98989.91
2023-03-26T17:21:53.932Z,98998.38
2023-03-26T17:25:04.744Z,98991.56
2023-03-26T17:28:32.968Z,98997.06
2023-03-26T17:32:12.807Z,98995.84
2023-03-26T17:35:17.505Z,99004.13
2023-03-26T17:38:28.814Z,99003.72
2023-03-26T17:41:55.452Z,99002.06
2023-03-26T17:45:22.896Z,99006.44
2023-03-26T17:48:30.873Z,99002.91
2023-03-26T17:51:38.731Z,99006.50
2023-03-26T17:54:52.896Z,99003.37
2023-03-26T17:58:00.106Z,99005.44
2023-03-26T18:01:23.061Z,99005.09
2023-03-26T18:04:40.087Z,98994.78
2023-03-26T18:08:05.166Z,98994.78
2023-03-26T18:11:29.013Z,98992.06
2023-03-26T18:15:13.653Z,98982.19
2023-03-26T18:18:32.052Z,98970.75
2023-03-26T18:21:38.923Z,98974.81
2023-03-26T18:24:46.021Z,98973.25
2023-03-26T18:27:51.299Z,98968.59
2023-03-26T18:30:55.475Z,98963.87
2023-03-26T18:34:14.237Z,98960.38
2023-03-26T18:37:39.602Z,98954.44
2023-03-26T18:40:46.401Z,98956.44
2023-03-26T18:43:51.468Z,98945.28
2023-03-26T18:46:56.244Z,98949.00
2023-03-26T18:50:01.543Z,98940.28
2023-03-26T18:53:09.430Z,98942.19
2023-03-26T18:56:28.855Z,98941.13
2023-03-26T18:59:41.366Z,98940.06
2023-03-26T19:02:50.787Z,98934.91
2023-03-26T19:05:57.376Z,98924.28
2023-03-26T19:09:23.902Z,98928.28
2023-03-26T19:12:36.581Z,98916.06
2023-03-26T19:15:43.266Z,98915.34
2023-03-26T19:18:50.031Z,98913.84
2023-03-26T19:21:57.346Z,98911.91
2023-03-26T19:25:05.977Z,98896.37
2023-03-26T19:28:40.113Z,98895.25
2023-03-26T19:31:44.277Z,98886.53
2023-03-26T19:34:49.684Z,98883.81
2023-03-26T19:37:57.596Z,98878.25
2023-03-26T19:41:02.943Z,98879.09
2023-03-26T19:44:28.318Z,98871.16
2023-03-26T19:47:52.188Z,98876.03
2023-03-26T19:51:06.174Z,98873.66
2023-03-26T19:54:17.806Z,98872.09
2023-03-26T19:57:24.339Z,98886.44
2023-03-26T20:00:29.808Z,98937.00
2023-03-26T20:03:45.075Z,98936.19
2023-03-26T20:06:50.710Z,98937.38
2023-03-26T20:09:56.938Z,98945.62
2023-03-26T20:13:01.970Z,98938.16
2023-03-26T20:16:34.857Z,98941.28
2023-03-26T20:19:39.857Z,98939.13
2023-03-26T20:22:47.676Z,98930.41
2023-03-26T20:25:55.069Z,98920.50
2023-03-26T20:29:00.361Z,98919.59
2023-03-26T20:32:06.972Z,98924.13
2023-03-26T20:35:16.850Z,98917.78
2023-03-26T20:38:24.037Z,98907.56
2023-03-26T20:41:34.796Z,98908.34
2023-03-26T20:44:37.785Z,98896.47
2023-03-26T20:47:42.685Z,98895.78
2023-03-26T20:50:50.845Z,98900.62
2023-03-26T20:53:55.555Z,98895.97
2023-03-26T20:56:58.477Z,98892.50
2023-03-26T21:00:01.853Z,98881.41
2023-03-26T21:03:05.486Z,98882.06
2023-03-26T21:06:15.459Z,98873.84
2023-03-26T21:09:24.125Z,98862.88
2023-03-26T21:12:33.592Z,98860.34
2023-03-26T21:15:37.612Z,98841.44
2023-03-26T21:18:42.001Z,98844.53
2023-03-26T21:22:10.990Z,98841.72
2023-03-26T21:25:23.087Z,98840.56
2023-03-26T21:28:39.726Z,98846.41
2023-03-26T21:31:48.422Z,98839.62
2023-03-26T21:34:58.103Z,98840.41
2023-03-26T21:38:05.006Z,98843.63
2023-03-26T21:41:08.374Z,98845.28
2023-03-26T21:44:11.914Z,98851.25
2023-03-26T21:47:15.075Z,98846.09
2023-03-26T21:50:21.888Z,98839.75
2023-03-26T21:53:25.372Z,98831.06
2023-03-26T21:56:46.267Z,98837.41
2023-03-26T22:00:15.161Z,98822.75
2023-03-26T22:03:36.605Z,98825.75
2023-03-26T22:07:01.205Z,98815.84
2023-03-26T22:10:05.282Z,98817.81
2023-03-26T22:13:08.237Z,98810.31
2023-03-26T22:16:11.946Z,98804.78
2023-03-26T22:19:15.004Z,98804.37
2023-03-26T22:22:18.317Z,98793.72
2023-03-26T22:25:23.005Z,98795.75
2023-03-26T22:28:27.282Z,98796.50
2023-03-26T22:31:30.106Z,98786.28
2023-03-26T22:34:35.264Z,98777.69
2023-03-26T22:37:38.299Z,98767.81
2023-03-26T22:40:41.591Z,98770.94
2023-03-26T22:43:46.373Z,98758.97
2023-03-26T22:46:51.823Z,98754.62
2023-03-26T22:49:54.733Z,98745.28
2023-03-26T22:52:57.816Z,98745.66
2023-03-26T22:56:01.158Z,98736.81
2023-03-26T22:59:04.491Z,98734.59
2023-03-26T23:02:09.990Z,98729.34
2023-03-26T23:05:14.723Z,98727.22
2023-03-26T23:08:18.024Z,98724.41
2023-03-26T23:11:22.350Z,98715.31
2023-03-26T23:14:25.436Z,98715.56
2023-03-26T23:17:29.259Z,98705.69
2023-03-26T23:20:38.078Z,98707.19
2023-03-26T23:23:41.895Z,98702.06
2023-03-26T23:26:50.600Z,98688.38
2023-03-26T23:29:55.607Z,98690.66
2023-03-26T23:32:58.703Z,98689.09
2023-03-26T23:36:07.262Z,98680.34
2023-03-26T23:39:11.137Z,98684.94
2023-03-26T23:42:29.298Z,98673.38
2023-03-26T23:45:33.546Z,98666.97
2023-03-26T23:48:37.444Z,98661.75
2023-03-26T23:51:40.280Z,98673.22
2023-03-26T23:54:43.414Z,98666.78
2023-03-26T23:57:46.564Z,98661.19
